Time;durP1;ratioP1;P1;durP2;ratioP2;P2;SDS_P1;SDS_P2;PMS_P1;PMS_P2;Temp;Humidity;BMP_temperature;BMP_pressure;BME280_temperature;BME280_humidity;BME280_pressure;Samples;Min_cycle;Max_cycle;Signal;HPM_P1;HPM_P2
2022/03/21 00:01:16;;;;;;;53.13;34.97;;;8.80;88.50;;;;;;6302911;22;20208;-85
2022/03/21 00:03:42;;;;;;;53.13;34.40;;;8.70;88.50;;;;;;6305497;22;20608;-85
2022/03/21 00:06:08;;;;;;;50.43;34.63;;;8.80;88.40;;;;;;6305512;22;20590;-84
2022/03/21 00:08:34;;;;;;;49.57;34.00;;;8.70;88.80;;;;;;6305329;22;20191;-84
2022/03/21 00:11:00;;;;;;;51.33;34.67;;;8.60;88.90;;;;;;6305760;22;20169;-85
2022/03/21 00:13:26;;;;;;;52.83;35.03;;;8.60;88.70;;;;;;6305871;22;20199;-85
2022/03/21 00:15:53;;;;;;;54.70;35.30;;;8.70;88.80;;;;;;6305810;22;20235;-84
2022/03/21 00:18:19;;;;;;;53.27;34.70;;;8.60;89.60;;;;;;6305912;22;20149;-85
2022/03/21 00:20:47;;;;;;;49.73;33.73;;;8.50;89.00;;;;;;6305888;22;20201;-85
2022/03/21 00:23:13;;;;;;;51.13;34.07;;;8.60;89.20;;;;;;6305283;22;20153;-85
2022/03/21 00:25:39;;;;;;;52.70;34.97;;;8.50;89.10;;;;;;6305615;22;20163;-85
2022/03/21 00:28:08;;;;;;;50.87;35.10;;;8.60;88.80;;;;;;6305809;22;20480;-85
2022/03/21 00:30:38;;;;;;;49.37;33.40;;;8.50;89.50;;;;;;6305525;22;20199;-86
2022/03/21 00:33:04;;;;;;;48.30;32.53;;;8.50;89.20;;;;;;6305632;22;20225;-85
2022/03/21 00:35:30;;;;;;;51.43;32.63;;;8.60;88.60;;;;;;6305523;22;20510;-85
2022/03/21 00:37:56;;;;;;;49.90;34.03;;;8.60;88.30;;;;;;6305338;22;20570;-85
2022/03/21 00:40:22;;;;;;;50.13;33.67;;;8.60;88.80;;;;;;6305640;22;20639;-85
2022/03/21 00:42:49;;;;;;;47.60;33.60;;;8.50;89.00;;;;;;6304966;22;20153;-85
2022/03/21 00:45:17;;;;;;;49.77;32.37;;;8.50;89.00;;;;;;6307181;22;20128;-85
2022/03/21 00:47:44;;;;;;;52.23;33.90;;;8.30;89.00;;;;;;6305272;22;20146;-85
2022/03/21 00:50:11;;;;;;;50.63;33.60;;;8.30;89.50;;;;;;6305085;22;20225;-85
2022/03/21 00:52:49;;;;;;;49.13;32.93;;;8.20;90.00;;;;;;6304731;22;20208;-86
2022/03/21 00:55:16;;;;;;;54.37;33.07;;;8.20;90.00;;;;;;6304890;22;20195;-85
2022/03/21 00:57:43;;;;;;;49.33;32.67;;;8.20;90.00;;;;;;6305551;22;20192;-85
2022/03/21 01:00:12;;;;;;;48.73;32.53;;;8.40;89.40;;;;;;6305417;22;20665;-85
2022/03/21 01:02:39;;;;;;;49.73;32.97;;;8.20;90.10;;;;;;6305906;22;20149;-85
2022/03/21 01:05:06;;;;;;;53.47;34.60;;;8.20;89.60;;;;;;6305443;22;20162;-86
2022/03/21 01:07:32;;;;;;;47.07;31.67;;;8.10;90.00;;;;;;6305749;22;20168;-85
2022/03/21 01:09:58;;;;;;;52.83;32.63;;;8.30;88.90;;;;;;6306110;22;20472;-85
2022/03/21 01:12:24;;;;;;;50.33;32.80;;;8.10;89.60;;;;;;6305419;22;20173;-85
2022/03/21 01:14:50;;;;;;;49.60;32.67;;;8.10;90.00;;;;;;6305528;22;20149;-85
2022/03/21 01:17:15;;;;;;;53.40;32.53;;;8.00;90.10;;;;;;6306616;22;20218;-85
2022/03/21 01:19:41;;;;;;;49.10;32.60;;;8.10;89.60;;;;;;6306957;22;20211;-85
2022/03/21 01:22:06;;;;;;;46.27;30.83;;;8.00;89.90;;;;;;6307484;22;20229;-85
2022/03/21 01:24:35;;;;;;;48.43;32.23;;;7.80;90.50;;;;;;6307247;22;20212;-85
2022/03/21 01:27:02;;;;;;;45.60;31.70;;;7.90;90.10;;;;;;6307185;22;20164;-85
2022/03/21 01:29:28;;;;;;;46.60;31.17;;;7.80;90.20;;;;;;6307329;22;20175;-85
2022/03/21 01:31:53;;;;;;;45.57;30.90;;;7.90;90.30;;;;;;6306867;22;20172;-85
2022/03/21 01:34:19;;;;;;;45.87;30.87;;;7.80;90.40;;;;;;6308287;22;20591;-85
2022/03/21 01:36:44;;;;;;;48.63;30.73;;;7.50;91.00;;;;;;6307480;22;20161;-86
2022/03/21 01:39:10;;;;;;;49.30;30.77;;;7.30;91.30;;;;;;6307035;22;20149;-85
2022/03/21 01:41:36;;;;;;;42.40;28.80;;;7.40;91.30;;;;;;6307435;22;20181;-86
2022/03/21 01:44:07;;;;;;;48.20;31.47;;;7.50;91.10;;;;;;6307105;22;20152;-85
2022/03/21 01:46:34;;;;;;;46.20;30.47;;;7.60;90.90;;;;;;6307581;22;20581;-85
2022/03/21 01:49:01;;;;;;;44.03;29.47;;;7.70;90.60;;;;;;6306689;22;20146;-85
2022/03/21 01:51:27;;;;;;;42.80;29.97;;;7.60;90.80;;;;;;6307238;22;20149;-85
2022/03/21 01:56:43;;;;;;;45.70;29.13;;;7.60;90.60;;;;;;6308657;22;20196;-85
2022/03/21 01:59:09;;;;;;;47.33;30.90;;;7.70;90.30;;;;;;6306990;22;20177;-85
2022/03/21 02:01:39;;;;;;;48.50;30.47;;;7.90;90.00;;;;;;6306400;22;20190;-85
2022/03/21 02:04:06;;;;;;;46.60;30.60;;;7.80;90.20;;;;;;6305486;22;20138;-85
2022/03/21 02:06:32;;;;;;;44.10;29.17;;;7.70;90.10;;;;;;6305017;22;20501;-86
2022/03/21 02:09:00;;;;;;;43.03;29.33;;;7.40;90.70;;;;;;6305342;22;20147;-86
2022/03/21 02:11:26;;;;;;;45.60;29.70;;;7.20;91.50;;;;;;6307953;22;20140;-85
2022/03/21 02:13:57;;;;;;;46.50;30.37;;;6.90;92.10;;;;;;6305528;22;20142;-86
2022/03/21 02:16:24;;;;;;;41.23;28.80;;;6.80;92.60;;;;;;6306807;22;20635;-85
2022/03/21 02:18:50;;;;;;;47.33;31.07;;;6.70;92.70;;;;;;6306494;22;20151;-85
2022/03/21 02:21:41;;;;;;;46.63;30.90;;;6.80;92.60;;;;;;6307143;22;20178;-85
2022/03/21 02:24:30;;;;;;;46.73;29.57;;;6.80;92.80;;;;;;6306778;22;20500;-85
2022/03/21 02:26:59;;;;;;;45.40;29.80;;;6.70;92.70;;;;;;6306323;22;20134;-86
2022/03/21 02:29:26;;;;;;;44.10;29.67;;;6.60;92.90;;;;;;6305771;22;20155;-85
2022/03/21 02:31:57;;;;;;;43.73;28.93;;;6.50;93.40;;;;;;6306440;22;20170;-85
2022/03/21 02:34:25;;;;;;;48.03;30.20;;;6.50;93.70;;;;;;6307655;22;20137;-85
2022/03/21 02:36:54;;;;;;;46.63;30.20;;;6.30;93.90;;;;;;6308150;22;20148;-85
2022/03/21 02:39:21;;;;;;;46.63;30.83;;;6.20;94.10;;;;;;6306730;22;20150;-85
2022/03/21 02:41:47;;;;;;;45.33;30.87;;;6.20;94.20;;;;;;6306549;22;20188;-85
2022/03/21 02:44:13;;;;;;;47.00;30.10;;;6.30;94.10;;;;;;6306541;22;20178;-85
2022/03/21 02:46:39;;;;;;;45.80;30.27;;;6.50;93.80;;;;;;6306301;22;20653;-85
2022/03/21 02:49:04;;;;;;;44.67;29.20;;;6.90;93.00;;;;;;6306842;22;20135;-85
2022/03/21 02:51:36;;;;;;;46.23;29.13;;;6.70;93.20;;;;;;6305766;22;20163;-85
2022/03/21 02:54:02;;;;;;;47.10;29.27;;;6.50;93.60;;;;;;6304982;22;20167;-85
2022/03/21 02:56:27;;;;;;;51.07;29.73;;;6.30;94.00;;;;;;6304862;22;20142;-86
2022/03/21 02:58:53;;;;;;;43.80;28.73;;;6.30;94.20;;;;;;6305127;22;20179;-85
2022/03/21 03:01:19;;;;;;;46.30;29.53;;;6.30;94.40;;;;;;6305982;22;20187;-85
2022/03/21 03:03:46;;;;;;;44.50;28.10;;;6.40;94.20;;;;;;6305827;22;20179;-86
2022/03/21 03:06:12;;;;;;;44.43;28.40;;;6.50;94.00;;;;;;6306345;22;20167;-85
2022/03/21 03:08:41;;;;;;;40.80;27.30;;;6.60;93.70;;;;;;6307488;22;20133;-85
2022/03/21 03:11:06;;;;;;;43.80;27.23;;;6.50;93.70;;;;;;6305998;22;20477;-84
2022/03/21 03:13:32;;;;;;;43.97;26.27;;;6.40;93.90;;;;;;6305951;22;20158;-85
2022/03/21 03:15:58;;;;;;;43.33;27.30;;;6.40;94.00;;;;;;6305813;22;20155;-85
2022/03/21 03:18:24;;;;;;;38.07;25.47;;;6.40;94.00;;;;;;6306013;22;20148;-84
2022/03/21 03:20:52;;;;;;;41.63;26.67;;;6.30;94.20;;;;;;6306122;22;20184;-85
2022/03/21 03:23:22;;;;;;;42.57;27.87;;;6.10;95.00;;;;;;6306208;22;20198;-85
2022/03/21 03:25:58;;;;;;;44.50;28.67;;;6.20;94.60;;;;;;6306106;22;20148;-85
2022/03/21 03:28:25;;;;;;;44.90;28.47;;;6.10;94.90;;;;;;6306285;22;20142;-85
2022/03/21 03:30:51;;;;;;;43.20;27.00;;;6.00;95.00;;;;;;6306008;22;20472;-85
2022/03/21 03:33:16;;;;;;;45.07;27.53;;;6.00;95.20;;;;;;6306412;22;20166;-86
2022/03/21 03:35:42;;;;;;;43.70;27.80;;;5.90;95.20;;;;;;6306169;22;20166;-86
2022/03/21 03:38:09;;;;;;;44.20;27.77;;;5.90;95.50;;;;;;6306672;22;20464;-86
2022/03/21 03:40:34;;;;;;;45.87;28.03;;;5.90;95.60;;;;;;6305776;22;20184;-86
2022/03/21 03:43:00;;;;;;;45.27;26.57;;;5.90;95.50;;;;;;6306168;22;20146;-85
2022/03/21 03:45:26;;;;;;;42.93;27.37;;;5.90;95.50;;;;;;6305522;22;20628;-85
2022/03/21 03:47:52;;;;;;;43.90;27.07;;;5.90;95.60;;;;;;6306176;22;20581;-85
2022/03/21 03:50:19;;;;;;;47.60;27.70;;;5.90;95.40;;;;;;6303780;22;20155;-86
2022/03/21 03:52:48;;;;;;;41.60;26.67;;;5.90;95.40;;;;;;6304777;22;20446;-86
2022/03/21 03:55:15;;;;;;;39.73;26.53;;;5.80;95.70;;;;;;6303795;22;20183;-86
2022/03/21 03:57:41;;;;;;;40.67;25.90;;;5.80;95.80;;;;;;6306150;22;20132;-86
2022/03/21 04:00:08;;;;;;;41.20;26.60;;;5.70;95.70;;;;;;6304797;22;20219;-85
2022/03/21 04:03:44;;;;;;;39.37;24.63;;;5.80;95.70;;;;;;6305170;22;20278;-86
2022/03/21 04:05:21;;;;;;;42.10;26.67;;;5.80;95.60;;;;;;6306801;22;20611;-86
2022/03/21 04:07:49;;;;;;;41.90;25.90;;;5.70;95.80;;;;;;6305928;22;20155;-86
2022/03/21 04:10:14;;;;;;;42.80;26.13;;;5.60;96.10;;;;;;6306299;22;20144;-86
2022/03/21 04:12:40;;;;;;;42.33;26.37;;;5.50;96.30;;;;;;6306806;22;20156;-87
2022/03/21 04:15:07;;;;;;;44.77;27.37;;;5.50;96.60;;;;;;6305713;22;20564;-84
2022/03/21 04:17:35;;;;;;;40.63;27.03;;;5.40;96.70;;;;;;6304556;22;20187;-87
2022/03/21 04:20:04;;;;;;;41.70;26.70;;;5.30;96.70;;;;;;6305603;22;20218;-84
2022/03/21 04:22:30;;;;;;;40.17;25.63;;;5.30;96.90;;;;;;6305473;22;20243;-86
2022/03/21 04:24:55;;;;;;;43.70;28.00;;;5.30;96.80;;;;;;6306112;22;20231;-86
2022/03/21 04:27:21;;;;;;;44.53;27.23;;;5.30;96.90;;;;;;6305993;22;20237;-84
2022/03/21 04:29:47;;;;;;;44.77;27.00;;;5.20;97.10;;;;;;6305044;22;20155;-84
2022/03/21 04:32:12;;;;;;;39.20;25.43;;;5.40;96.80;;;;;;6305416;22;20178;-86
2022/03/21 04:34:39;;;;;;;42.97;27.17;;;5.40;96.70;;;;;;6305741;22;20149;-84
2022/03/21 04:37:04;;;;;;;40.87;26.43;;;5.40;96.90;;;;;;6305441;22;20215;-86
2022/03/21 04:39:30;;;;;;;42.00;26.23;;;5.20;97.10;;;;;;6305403;22;20218;-84
2022/03/21 04:41:56;;;;;;;40.93;27.03;;;5.10;97.40;;;;;;6305999;22;20151;-85
2022/03/21 04:44:21;;;;;;;44.17;26.83;;;5.10;97.60;;;;;;6305417;22;20221;-84
2022/03/21 04:46:47;;;;;;;44.63;27.00;;;5.10;97.80;;;;;;6305344;22;20151;-84
2022/03/21 04:49:12;;;;;;;45.60;27.77;;;5.10;97.80;;;;;;6305659;22;20141;-84
2022/03/21 04:51:38;;;;;;;42.80;27.10;;;5.00;98.00;;;;;;6306843;22;20154;-84
2022/03/21 04:54:04;;;;;;;43.07;26.53;;;5.00;98.00;;;;;;6307485;22;20145;-86
2022/03/21 04:56:29;;;;;;;43.57;26.37;;;5.00;98.20;;;;;;6309093;22;20166;-86
2022/03/21 04:58:55;;;;;;;41.23;26.63;;;5.10;97.90;;;;;;6307487;22;20147;-86
2022/03/21 05:01:21;;;;;;;42.93;27.83;;;5.10;98.00;;;;;;6307343;22;20629;-86
2022/03/21 05:03:48;;;;;;;41.60;26.73;;;5.20;97.70;;;;;;6308075;22;20179;-86
2022/03/21 05:06:16;;;;;;;45.07;27.63;;;5.20;97.60;;;;;;6309316;22;20167;-84
2022/03/21 05:08:43;;;;;;;44.60;27.43;;;5.20;97.80;;;;;;6307910;22;20144;-84
2022/03/21 05:11:08;;;;;;;44.03;26.83;;;5.10;97.90;;;;;;6307933;22;20166;-86
2022/03/21 05:13:34;;;;;;;45.23;28.07;;;5.00;98.20;;;;;;6307470;22;20228;-87
2022/03/21 05:16:00;;;;;;;40.87;26.83;;;5.20;98.00;;;;;;6307858;22;20151;-86
2022/03/21 05:18:27;;;;;;;44.40;29.30;;;5.10;97.90;;;;;;6307801;22;20161;-86
2022/03/21 05:20:52;;;;;;;42.13;27.47;;;5.00;98.30;;;;;;6307335;22;20298;-86
2022/03/21 05:31:31;;;;;;;42.67;26.87;;;4.90;98.70;;;;;;6308795;22;20177;-85
2022/03/21 05:36:42;;;;;;;46.00;27.57;;;4.90;98.70;;;;;;6309192;22;20176;-84
2022/03/21 05:39:07;;;;;;;43.97;28.10;;;5.00;98.60;;;;;;6307213;22;20151;-87
2022/03/21 05:41:33;;;;;;;42.40;26.87;;;5.00;98.70;;;;;;6306692;22;20614;-85
2022/03/21 05:43:59;;;;;;;44.93;26.93;;;4.90;99.00;;;;;;6307277;22;20152;-88
2022/03/21 05:46:25;;;;;;;42.63;26.20;;;4.90;99.10;;;;;;6306584;22;20160;-86
2022/03/21 05:48:51;;;;;;;40.63;26.63;;;4.90;99.30;;;;;;6307025;22;20146;-86
2022/03/21 05:51:18;;;;;;;43.77;27.07;;;4.90;99.30;;;;;;6307535;22;20157;-86
2022/03/21 05:53:45;;;;;;;48.13;27.10;;;4.90;99.20;;;;;;6307151;22;20151;-85
2022/03/21 05:56:11;;;;;;;42.70;26.60;;;4.90;99.30;;;;;;6307087;22;20588;-86
2022/03/21 05:58:37;;;;;;;44.20;27.00;;;5.00;99.20;;;;;;6306750;22;20162;-86
2022/03/21 06:01:03;;;;;;;42.33;26.23;;;5.10;99.10;;;;;;6306816;22;20203;-87
2022/03/21 06:03:29;;;;;;;40.20;25.37;;;5.10;98.70;;;;;;6306702;22;20175;-84
2022/03/21 06:05:55;;;;;;;41.23;26.40;;;5.20;98.60;;;;;;6306751;22;20166;-87
2022/03/21 06:08:23;;;;;;;44.20;26.13;;;5.20;98.80;;;;;;6307105;22;20219;-85
2022/03/21 06:10:49;;;;;;;44.10;26.60;;;5.30;98.50;;;;;;6306492;22;20508;-84
2022/03/21 06:13:20;;;;;;;39.83;25.70;;;5.30;98.60;;;;;;6306716;22;20182;-86
2022/03/21 06:15:47;;;;;;;43.40;26.67;;;5.30;98.70;;;;;;6307285;22;20205;-86
2022/03/21 06:18:13;;;;;;;40.07;25.70;;;5.10;99.00;;;;;;6307312;22;20642;-84
2022/03/21 06:20:39;;;;;;;40.90;25.73;;;5.10;99.20;;;;;;6306990;22;20188;-85
2022/03/21 06:23:06;;;;;;;43.23;26.60;;;5.10;99.30;;;;;;6307115;22;20148;-86
2022/03/21 06:25:35;;;;;;;42.20;25.47;;;5.10;99.60;;;;;;6306858;22;20146;-86
2022/03/21 06:28:02;;;;;;;44.60;26.67;;;5.10;99.70;;;;;;6307566;22;20143;-87
2022/03/21 06:30:29;;;;;;;43.53;26.20;;;5.30;99.60;;;;;;6308673;22;20209;-86
2022/03/21 06:32:55;;;;;;;37.97;25.27;;;5.20;99.50;;;;;;6307127;22;20170;-86
2022/03/21 06:35:22;;;;;;;45.27;27.20;;;5.20;99.50;;;;;;6307353;22;20420;-86
2022/03/21 06:37:50;;;;;;;40.93;26.03;;;5.30;99.70;;;;;;6307172;22;20764;-86
2022/03/21 06:40:27;;;;;;;45.93;26.17;;;5.30;99.80;;;;;;6307497;22;20185;-88
2022/03/21 07:52:46;;;;;;;29.30;14.60;;;8.40;96.90;;;;;;6304413;22;20667;-91
2022/03/21 07:55:20;;;;;;;23.37;14.90;;;8.50;96.90;;;;;;6306118;22;20593;-92
2022/03/21 07:57:46;;;;;;;29.20;15.33;;;8.60;97.10;;;;;;6306774;22;20153;-91
2022/03/21 08:03:43;;;;;;;27.43;15.30;;;8.90;96.40;;;;;;6307913;22;20191;-94
2022/03/21 08:12:35;;;;;;;24.73;14.27;;;9.50;94.90;;;;;;6305545;22;20208;-93
2022/03/21 08:22:23;;;;;;;;;;;;;;;;;;;;;
2022/03/21 08:28:11;;;;;;;24.33;14.27;;;10.10;94.50;;;;;;6292619;22;20484;-92
2022/03/21 21:14:35;;;;;;;20.93;12.67;;;16.50;77.40;;;;;;5606931;22;15125888;-91
2022/03/21 21:17:03;;;;;;;16.70;10.93;;;16.30;77.80;;;;;;6250811;23;20181;-92
2022/03/21 21:19:35;;;;;;;17.57;10.67;;;16.30;77.90;;;;;;6254194;23;20155;-91
2022/03/21 21:22:01;;;;;;;18.67;11.17;;;16.20;78.20;;;;;;6253802;23;20157;-91
2022/03/21 21:24:26;;;;;;;15.53;11.00;;;16.20;78.50;;;;;;6252808;23;20497;-91
2022/03/21 21:26:56;;;;;;;19.03;12.07;;;16.10;78.60;;;;;;6276733;22;20178;-91
2022/03/21 21:29:25;;;;;;;18.00;11.10;;;16.10;78.60;;;;;;6282200;22;20153;-91
2022/03/21 21:31:53;;;;;;;20.87;11.90;;;16.10;79.00;;;;;;6282747;22;20147;-93
2022/03/21 21:34:19;;;;;;;19.27;11.13;;;16.20;78.50;;;;;;6283064;22;20228;-91
2022/03/21 21:36:45;;;;;;;17.40;11.27;;;15.90;79.10;;;;;;6282801;22;20196;-91
2022/03/21 21:39:11;;;;;;;17.93;11.30;;;15.70;80.10;;;;;;6276753;22;20575;-91
2022/03/21 21:41:36;;;;;;;23.43;11.80;;;15.60;81.10;;;;;;6276005;22;20151;-91
2022/03/21 21:44:03;;;;;;;26.83;13.20;;;15.60;81.20;;;;;;6276236;22;20179;-92
2022/03/21 21:46:29;;;;;;;24.17;12.47;;;15.60;81.80;;;;;;6276218;22;20185;-90
2022/03/21 21:48:55;;;;;;;23.73;13.40;;;15.90;80.40;;;;;;6276518;22;20145;-91
2022/03/21 21:51:21;;;;;;;28.77;14.30;;;15.90;80.40;;;;;;6277268;22;20303;-91
2022/03/21 21:53:47;;;;;;;23.17;13.90;;;15.80;80.60;;;;;;6277711;22;20155;-91
2022/03/21 21:56:13;;;;;;;26.60;17.30;;;15.70;81.20;;;;;;6277441;22;20150;-91
2022/03/21 21:58:39;;;;;;;24.97;14.83;;;15.80;80.90;;;;;;6276676;22;20185;-91
2022/03/21 22:01:10;;;;;;;25.73;16.07;;;15.60;81.80;;;;;;6277869;22;20153;-92
2022/03/21 22:03:36;;;;;;;29.97;16.83;;;15.50;81.30;;;;;;6277208;22;20227;-90
2022/03/21 22:06:04;;;;;;;33.00;18.73;;;15.40;82.20;;;;;;6278590;22;20629;-90
2022/03/21 22:08:31;;;;;;;22.87;16.13;;;15.50;82.10;;;;;;6275728;22;20226;-91
2022/03/21 22:10:57;;;;;;;25.83;17.70;;;15.40;82.40;;;;;;6276563;22;20142;-91
2022/03/21 22:13:23;;;;;;;24.83;17.17;;;15.50;82.20;;;;;;6281241;22;20578;-91
2022/03/21 22:15:48;;;;;;;24.07;16.00;;;15.50;81.80;;;;;;6279930;22;20155;-91
2022/03/21 22:18:14;;;;;;;24.23;15.57;;;15.20;83.20;;;;;;6281778;22;20145;-90
2022/03/21 22:20:42;;;;;;;26.23;15.03;;;15.10;83.80;;;;;;6281428;22;20205;-91
2022/03/21 22:23:10;;;;;;;27.43;16.87;;;15.00;84.50;;;;;;6280968;22;20155;-90
2022/03/21 22:25:36;;;;;;;31.33;18.17;;;15.00;84.10;;;;;;6281050;22;20339;-91
2022/03/21 22:28:01;;;;;;;29.17;21.13;;;14.90;84.40;;;;;;6280843;22;20600;-91
2022/03/21 22:30:27;;;;;;;34.73;20.67;;;15.00;84.10;;;;;;6280797;22;20178;-91
2022/03/21 22:32:52;;;;;;;27.60;18.30;;;15.20;83.80;;;;;;6281298;22;20213;-91
2022/03/21 22:35:18;;;;;;;31.27;17.27;;;15.40;83.30;;;;;;6281212;22;20251;-91
2022/03/21 22:37:44;;;;;;;28.80;17.07;;;15.50;82.50;;;;;;6281000;22;20150;-91
2022/03/21 22:48:23;;;;;;;37.33;21.97;;;15.40;83.20;;;;;;6308302;22;20599;-91
2022/03/21 22:50:48;;;;;;;29.83;18.07;;;15.50;82.70;;;;;;6280454;22;20192;-91
2022/03/21 22:53:14;;;;;;;30.27;17.13;;;15.60;82.30;;;;;;6280915;22;20196;-91
2022/03/21 22:55:40;;;;;;;29.97;17.83;;;15.40;82.80;;;;;;6281049;22;20161;-90
2022/03/21 22:58:05;;;;;;;31.70;18.60;;;15.30;83.00;;;;;;6281450;22;20585;-90
2022/03/21 23:00:40;;;;;;;28.73;17.73;;;15.00;84.20;;;;;;6280975;22;20148;-89
2022/03/21 23:03:07;;;;;;;27.00;16.37;;;14.90;84.70;;;;;;6280916;22;20143;-91
2022/03/21 23:05:36;;;;;;;30.67;17.20;;;15.00;84.50;;;;;;6280603;22;20153;-89
2022/03/21 23:08:02;;;;;;;30.03;17.43;;;15.00;84.30;;;;;;6280319;22;20608;-90
2022/03/21 23:10:27;;;;;;;24.17;16.33;;;14.80;85.20;;;;;;6281030;22;20149;-91
2022/03/21 23:12:54;;;;;;;27.07;16.07;;;14.90;85.00;;;;;;6281071;22;20188;-91
2022/03/21 23:15:22;;;;;;;28.73;16.80;;;14.80;85.60;;;;;;6278271;22;20153;-92
2022/03/21 23:17:48;;;;;;;25.33;16.60;;;14.80;85.20;;;;;;6279409;22;20243;-91
2022/03/21 23:20:16;;;;;;;24.23;16.23;;;14.60;86.10;;;;;;6280626;22;20177;-92
2022/03/21 23:22:41;;;;;;;23.33;15.43;;;14.60;86.10;;;;;;6280589;22;20153;-90
2022/03/21 23:25:09;;;;;;;23.87;15.70;;;14.40;86.80;;;;;;6281114;22;20194;-90
2022/03/21 23:27:41;;;;;;;24.83;14.87;;;14.20;87.60;;;;;;6281381;22;20233;-96
2022/03/21 23:30:07;;;;;;;26.80;16.20;;;14.30;87.70;;;;;;6280595;22;20145;-91
2022/03/21 23:32:33;;;;;;;21.83;15.30;;;14.10;87.90;;;;;;6281243;22;20182;-91
2022/03/21 23:34:59;;;;;;;22.40;15.60;;;14.00;88.80;;;;;;6280800;22;20156;-91
2022/03/21 23:37:25;;;;;;;21.97;15.50;;;14.00;89.20;;;;;;6280545;22;20156;-91
2022/03/21 23:42:35;;;;;;;28.17;15.47;;;14.00;89.10;;;;;;6307997;22;20188;-91
2022/03/21 23:45:00;;;;;;;22.97;15.17;;;13.90;89.20;;;;;;6281017;22;20145;-91
2022/03/21 23:47:26;;;;;;;21.30;14.17;;;14.00;89.10;;;;;;6280313;22;20192;-91
2022/03/21 23:49:52;;;;;;;20.97;14.83;;;14.00;89.40;;;;;;6280730;22;20232;-91
2022/03/21 23:52:18;;;;;;;19.90;13.83;;;13.80;90.00;;;;;;6280530;22;20236;-90
2022/03/21 23:54:43;;;;;;;23.23;15.57;;;13.70;90.30;;;;;;6279975;22;20654;-83
2022/03/21 23:57:09;;;;;;;27.37;16.40;;;13.40;90.80;;;;;;6305959;22;20562;-83
2022/03/21 23:59:35;;;;;;;27.57;15.43;;;13.30;91.20;;;;;;6279778;22;20138;-82
